Time;durP1;ratioP1;P1;durP2;ratioP2;P2;SDS_P1;SDS_P2;PMS_P1;PMS_P2;Temp;Humidity;BMP_temperature;BMP_pressure;BME280_temperature;BME280_humidity;BME280_pressure;Samples;Min_cycle;Max_cycle;Signal;HPM_P1;HPM_P2
2022/07/02 00:00:18;;;;;;;11.52;5.38;;;;;;;22.30;87.63;100360.34;5031123;28;20405;-75
2022/07/02 00:02:43;;;;;;;12.20;5.30;;;;;;;22.72;87.60;100430.00;5030475;28;20442;-74
2022/07/02 00:05:12;;;;;;;11.85;5.00;;;;;;;22.70;87.03;100427.38;5030908;28;20091;-74
2022/07/02 00:07:38;;;;;;;13.95;5.32;;;;;;;22.64;87.10;100413.44;5031206;28;20032;-76
2022/07/02 00:10:04;;;;;;;7.43;5.30;;;;;;;22.71;87.15;100436.16;5030885;28;20033;-77
2022/07/02 00:12:30;;;;;;;11.70;5.63;;;;;;;22.67;87.08;100440.56;5030757;28;20040;-74
2022/07/02 00:14:58;;;;;;;6.75;4.97;;;;;;;22.56;87.18;100422.28;5030929;28;20021;-77
2022/07/02 00:17:24;;;;;;;7.95;5.00;;;;;;;22.68;87.20;100444.06;5031133;28;20408;-73
2022/07/02 00:19:51;;;;;;;8.68;5.10;;;;;;;22.31;87.13;100408.56;5031154;28;20120;-74
2022/07/02 00:22:17;;;;;;;9.68;5.63;;;;;;;22.51;87.33;100450.44;5030534;28;20033;-72
2022/07/02 00:24:43;;;;;;;14.80;5.82;;;;;;;22.43;87.63;100429.50;5030695;28;20045;-74
2022/07/02 00:27:11;;;;;;;9.57;5.60;;;;;;;22.52;88.07;100451.28;5017119;28;20079;-74
2022/07/02 00:29:49;;;;;;;8.05;4.97;;;;;;;22.51;88.27;100446.94;5030770;28;20037;-74
2022/07/02 00:32:14;;;;;;;10.43;4.85;;;;;;;22.38;87.87;100433.94;5030690;28;20025;-73
2022/07/02 00:34:43;;;;;;;7.00;4.90;;;;;;;22.54;87.27;100453.03;5030509;28;20404;-74
2022/07/02 00:37:10;;;;;;;9.23;5.03;;;;;;;22.53;86.95;100429.34;5030309;28;20104;-74
2022/07/02 00:39:37;;;;;;;5.65;4.95;;;;;;;22.55;86.80;100436.34;5020857;28;20037;-74
2022/07/02 00:42:07;;;;;;;7.82;4.95;;;;;;;22.36;87.27;100422.53;5026601;28;20029;-74
2022/07/02 00:44:33;;;;;;;7.72;5.20;;;;;;;22.35;87.27;100428.66;5030376;28;20025;-74
2022/07/02 00:47:04;;;;;;;11.93;5.43;;;;;;;22.10;87.28;100412.31;5030730;28;20032;-75
2022/07/02 00:49:32;;;;;;;14.25;5.40;;;;;;;22.16;87.72;100429.78;5029963;28;20519;-74
2022/07/02 00:51:58;;;;;;;7.60;5.35;;;;;;;22.13;88.62;100434.19;5030419;28;20065;-74
2022/07/02 00:54:24;;;;;;;7.93;5.65;;;;;;;22.09;88.26;100429.88;5030390;28;20024;-73
2022/07/02 00:56:52;;;;;;;6.57;4.90;;;;;;;22.07;87.90;100438.63;5030536;28;20033;-78
2022/07/02 00:59:18;;;;;;;7.45;5.75;;;;;;;22.16;87.57;100435.91;5030428;28;20025;-73
2022/07/02 01:01:43;;;;;;;8.02;5.05;;;;;;;22.22;87.42;100441.09;5030152;28;20489;-74
2022/07/02 01:04:13;;;;;;;8.63;5.47;;;;;;;22.37;86.20;100433.91;5025023;28;20037;-72
2022/07/02 01:06:41;;;;;;;8.82;5.72;;;;;;;22.24;86.17;100422.69;5030437;28;20053;-74
2022/07/02 01:11:54;;;;;;;10.00;5.82;;;;;;;22.04;87.06;100433.44;5019009;28;20535;-75
2022/07/02 01:14:21;;;;;;;9.68;5.75;;;;;;;22.04;87.49;100438.69;5031048;28;20049;-74
2022/07/02 01:16:47;;;;;;;12.27;5.47;;;;;;;22.03;86.94;100439.56;5034338;28;20870;-74
2022/07/02 01:19:17;;;;;;;7.40;5.60;;;;;;;22.08;86.94;100438.66;5034568;28;20026;-73
2022/07/02 01:22:07;;;;;;;7.13;5.47;;;;;;;22.13;86.53;100438.56;5033853;28;20024;-73
2022/07/02 01:24:32;;;;;;;10.45;5.45;;;;;;;22.11;86.80;100438.59;5033804;28;20036;-74
2022/07/02 01:26:58;;;;;;;8.75;5.15;;;;;;;22.00;87.12;100435.22;5033842;28;20025;-75
2022/07/02 01:29:23;;;;;;;8.88;5.57;;;;;;;21.97;87.50;100435.25;5033989;28;20021;-74
2022/07/02 01:31:49;;;;;;;9.25;5.55;;;;;;;21.86;88.05;100445.00;5034006;28;20065;-74
2022/07/02 01:34:14;;;;;;;11.80;5.65;;;;;;;21.79;88.71;100431.06;5033638;28;20489;-73
2022/07/02 01:36:40;;;;;;;8.63;5.10;;;;;;;21.74;87.99;100422.34;5033606;28;20443;-74
2022/07/02 01:39:05;;;;;;;16.17;6.25;;;;;;;21.70;88.16;100416.25;5033809;28;20049;-72
2022/07/02 01:41:40;;;;;;;8.35;5.38;;;;;;;21.73;88.72;100421.50;5033186;28;20025;-72
2022/07/02 01:44:09;;;;;;;7.65;5.43;;;;;;;21.61;88.43;100411.09;5033513;28;20025;-73
2022/07/02 01:46:36;;;;;;;8.00;5.47;;;;;;;21.50;89.52;100411.16;5033675;28;20087;-72
2022/07/02 01:49:02;;;;;;;9.45;6.35;;;;;;;21.30;89.57;100390.31;5016007;28;20440;-74
2022/07/02 01:51:27;;;;;;;7.78;5.53;;;;;;;21.57;89.55;100439.16;5033443;28;20053;-74
2022/07/02 01:53:53;;;;;;;11.52;5.40;;;;;;;21.28;89.66;100408.72;5033476;28;20396;-74
2022/07/02 01:56:19;;;;;;;11.73;5.88;;;;;;;21.35;90.45;100427.91;5033560;28;20471;-74
2022/07/02 01:58:45;;;;;;;7.97;5.90;;;;;;;21.38;90.34;100432.28;5033517;28;20026;-74
2022/07/02 02:01:10;;;;;;;7.85;6.03;;;;;;;21.27;90.50;100412.22;5033515;28;20485;-73
2022/07/02 02:03:37;;;;;;;11.73;5.80;;;;;;;21.41;90.18;100429.59;4997935;28;20064;-73
2022/07/02 02:06:02;;;;;;;8.30;5.72;;;;;;;21.39;90.86;100444.53;5033169;28;20112;-72
2022/07/02 02:08:28;;;;;;;11.63;6.07;;;;;;;21.28;90.44;100432.38;5033138;28;20047;-74
2022/07/02 02:10:53;;;;;;;7.70;5.82;;;;;;;21.21;90.46;100417.53;5032740;28;20107;-73
2022/07/02 02:13:19;;;;;;;10.43;6.30;;;;;;;21.30;90.42;100425.31;5033400;28;20025;-73
2022/07/02 02:15:44;;;;;;;9.00;5.38;;;;;;;21.30;91.54;100448.09;5033014;28;20060;-74
2022/07/02 02:18:10;;;;;;;11.60;6.30;;;;;;;20.92;91.43;100391.50;5031943;28;20104;-74
2022/07/02 02:20:35;;;;;;;10.18;6.05;;;;;;;21.21;91.60;100446.41;5032902;28;20053;-72
2022/07/02 02:23:04;;;;;;;9.07;5.85;;;;;;;21.26;91.73;100452.50;5032607;28;20447;-73
2022/07/02 02:25:33;;;;;;;9.15;6.05;;;;;;;21.24;91.77;100451.63;5031085;28;20832;-73
2022/07/02 02:27:59;;;;;;;10.85;6.18;;;;;;;21.30;91.77;100453.34;5033000;28;20030;-74
2022/07/02 02:30:25;;;;;;;11.05;6.25;;;;;;;21.23;91.66;100456.91;5032797;28;20029;-72
2022/07/02 02:32:50;;;;;;;9.32;6.10;;;;;;;20.95;91.30;100401.97;5032714;28;20392;-74
2022/07/02 02:35:16;;;;;;;12.88;6.05;;;;;;;21.06;91.98;100429.03;5032632;28;20068;-73
2022/07/02 02:37:42;;;;;;;10.20;6.32;;;;;;;21.14;91.44;100435.06;5032413;28;20037;-73
2022/07/02 02:40:07;;;;;;;7.97;5.72;;;;;;;21.33;91.26;100455.94;5032411;28;20033;-73
2022/07/02 02:42:33;;;;;;;9.05;6.15;;;;;;;21.25;91.74;100458.63;4997302;28;20096;-78
2022/07/02 02:44:58;;;;;;;9.10;6.28;;;;;;;21.04;92.47;100432.53;5032064;28;20041;-73
2022/07/02 02:47:24;;;;;;;9.60;6.10;;;;;;;20.81;92.72;100429.16;5032617;28;20029;-74
2022/07/02 02:49:49;;;;;;;9.32;6.63;;;;;;;21.01;93.36;100472.81;5032533;28;20021;-74
2022/07/02 02:52:15;;;;;;;11.23;6.60;;;;;;;20.89;93.24;100451.88;5032099;28;20067;-73
2022/07/02 02:54:40;;;;;;;8.80;6.57;;;;;;;21.01;93.57;100472.81;5031947;28;20021;-72
2022/07/02 02:57:06;;;;;;;8.82;6.38;;;;;;;21.00;93.28;100468.44;5032202;28;20017;-71
2022/07/02 02:59:31;;;;;;;10.23;6.95;;;;;;;20.67;92.80;100403.00;5032285;28;20029;-73
2022/07/02 03:01:56;;;;;;;10.50;7.30;;;;;;;21.12;93.14;100470.97;5032402;28;20171;-74
2022/07/02 03:04:22;;;;;;;11.48;7.03;;;;;;;21.09;93.02;100463.09;5032146;28;20040;-74
2022/07/02 03:06:47;;;;;;;10.68;7.30;;;;;;;20.76;92.91;100407.34;5031916;28;20022;-74
2022/07/02 03:09:13;;;;;;;9.70;7.20;;;;;;;21.20;92.92;100484.03;5031504;28;20025;-74
2022/07/02 03:11:38;;;;;;;10.88;7.55;;;;;;;21.23;92.86;100483.16;5032135;28;20129;-74
2022/07/02 03:14:04;;;;;;;10.63;6.88;;;;;;;20.93;92.73;100429.97;5031694;28;20044;-73
2022/07/02 03:16:29;;;;;;;11.45;7.32;;;;;;;21.16;93.05;100475.31;5031735;28;20018;-73
2022/07/02 03:18:55;;;;;;;9.32;7.72;;;;;;;21.13;93.41;100470.09;5032053;28;20529;-74
2022/07/02 03:21:20;;;;;;;13.60;8.10;;;;;;;20.92;94.26;100437.00;5031869;28;20400;-74
2022/07/02 03:23:45;;;;;;;11.80;7.82;;;;;;;21.07;94.56;100467.53;5031223;28;20136;-74
2022/07/02 03:26:11;;;;;;;12.07;7.85;;;;;;;20.98;95.19;100452.66;5031694;28;20409;-72
2022/07/02 03:28:37;;;;;;;12.18;8.35;;;;;;;21.08;95.28;100460.50;5031901;28;20033;-73
2022/07/02 03:31:02;;;;;;;17.38;8.70;;;;;;;21.21;95.17;100482.28;5031561;28;20038;-74
2022/07/02 03:33:27;;;;;;;12.70;8.00;;;;;;;21.25;95.61;100482.25;5031267;28;20022;-74
2022/07/02 03:35:53;;;;;;;16.75;8.43;;;;;;;20.47;96.47;100417.94;4996227;28;20555;-75
2022/07/02 03:38:18;;;;;;;10.88;7.68;;;;;;;20.75;98.48;100486.94;5030395;28;20516;-74
2022/07/02 03:40:44;;;;;;;14.50;8.43;;;;;;;20.73;98.94;100472.94;5031449;28;20120;-74
2022/07/02 03:43:10;;;;;;;14.75;8.70;;;;;;;20.84;97.64;100478.13;5031079;28;20044;-73
2022/07/02 03:45:36;;;;;;;13.00;9.27;;;;;;;20.86;97.45;100500.00;5031013;28;20029;-74
2022/07/02 03:48:01;;;;;;;14.18;10.23;;;;;;;20.47;97.30;100444.16;5031324;28;20590;-72
2022/07/02 03:50:27;;;;;;;19.35;10.43;;;;;;;20.38;99.80;100505.38;5031137;28;20442;-74
2022/07/02 03:52:52;;;;;;;12.30;9.82;;;;;;;20.01;100.00;100440.84;5020830;28;20042;-74
2022/07/02 03:55:18;;;;;;;14.05;9.00;;;;;;;20.39;100.00;100504.53;5027126;28;20021;-73
2022/07/02 03:57:43;;;;;;;12.82;8.60;;;;;;;20.58;98.90;100499.22;5030916;28;20040;-73
2022/07/02 04:00:09;;;;;;;10.50;8.65;;;;;;;20.73;97.59;100496.53;5030670;28;20040;-77
2022/07/02 04:02:34;;;;;;;15.27;9.52;;;;;;;20.96;96.90;100512.19;5030898;28;20052;-73
2022/07/02 04:05:00;;;;;;;13.60;8.90;;;;;;;21.10;96.32;100514.72;5030971;28;20082;-74
2022/07/02 04:07:26;;;;;;;11.82;9.05;;;;;;;20.88;96.47;100452.75;5030510;28;20042;-74
2022/07/02 04:09:51;;;;;;;12.60;9.32;;;;;;;21.19;95.21;100499.81;5030561;28;20017;-73
2022/07/02 04:12:16;;;;;;;12.70;8.68;;;;;;;21.37;95.28;100525.97;5030453;28;20040;-73
2022/07/02 04:14:42;;;;;;;19.77;8.65;;;;;;;21.36;95.72;100525.94;5030642;28;20018;-73
2022/07/02 04:17:07;;;;;;;9.63;7.63;;;;;;;21.07;95.71;100483.25;5030950;28;20038;-73
2022/07/02 04:19:33;;;;;;;11.18;7.75;;;;;;;21.35;94.62;100511.94;4995296;28;20033;-72
2022/07/02 04:22:01;;;;;;;12.43;7.72;;;;;;;21.53;94.79;100520.59;5030213;28;20404;-73
2022/07/02 04:24:30;;;;;;;9.68;7.95;;;;;;;21.31;95.42;100526.00;5030354;28;20029;-75
2022/07/02 04:26:56;;;;;;;12.20;8.35;;;;;;;21.01;94.69;100483.31;5030609;28;20033;-73
2022/07/02 04:29:21;;;;;;;10.35;7.35;;;;;;;21.38;95.56;100532.94;5030277;28;20428;-73
2022/07/02 04:31:47;;;;;;;12.10;7.82;;;;;;;21.38;95.86;100529.44;5030250;28;20033;-73
2022/07/02 04:34:13;;;;;;;15.32;7.97;;;;;;;21.38;95.14;100534.69;5030304;28;20083;-74
2022/07/02 04:36:39;;;;;;;11.50;7.30;;;;;;;21.04;96.88;100513.91;5029839;28;20366;-76
2022/07/02 04:39:05;;;;;;;10.20;7.30;;;;;;;20.89;97.90;100465.00;5030074;28;20463;-76
2022/07/02 04:41:31;;;;;;;9.52;7.90;;;;;;;21.40;96.49;100522.44;5030156;28;20048;-72
2022/07/02 04:43:57;;;;;;;14.55;7.80;;;;;;;21.58;97.19;100522.34;5030321;28;20071;-74
2022/07/02 04:46:23;;;;;;;9.88;7.38;;;;;;;21.46;96.97;100525.03;5030526;28;20481;-73
2022/07/02 04:48:48;;;;;;;11.98;8.10;;;;;;;21.58;96.91;100524.06;5029295;28;20040;-73
2022/07/02 04:51:14;;;;;;;9.57;8.27;;;;;;;21.74;96.25;100528.31;5011797;28;20072;-72
2022/07/02 04:53:39;;;;;;;10.50;7.93;;;;;;;21.83;96.02;100537.00;5029917;28;20041;-74
2022/07/02 04:56:05;;;;;;;11.73;8.48;;;;;;;21.56;95.05;100461.03;5030313;28;20021;-74
2022/07/02 04:58:30;;;;;;;9.82;8.07;;;;;;;21.72;95.68;100468.78;5030193;28;20060;-74
2022/07/02 05:00:55;;;;;;;10.73;8.65;;;;;;;22.02;95.79;100507.06;5029830;28;20029;-74
2022/07/02 05:03:21;;;;;;;11.88;8.48;;;;;;;22.00;95.61;100508.81;5030263;28;20030;-74
2022/07/02 05:05:46;;;;;;;12.27;8.60;;;;;;;22.16;96.07;100520.06;5029437;28;20029;-74
2022/07/02 05:08:12;;;;;;;11.70;9.27;;;;;;;22.34;95.43;100533.91;5021115;28;20032;-74
2022/07/02 05:10:37;;;;;;;11.60;8.85;;;;;;;22.39;95.67;100534.75;4997225;28;20032;-74
2022/07/02 05:13:05;;;;;;;17.40;8.15;;;;;;;22.42;95.91;100525.06;5029349;28;20053;-74
2022/07/02 05:15:31;;;;;;;12.10;8.48;;;;;;;22.61;95.81;100538.00;5029531;28;20079;-74
2022/07/02 05:17:57;;;;;;;14.23;7.38;;;;;;;22.61;94.76;100524.88;5030011;28;20109;-74
2022/07/02 05:20:23;;;;;;;17.00;8.20;;;;;;;22.70;94.58;100510.72;5029152;28;20105;-74
2022/07/02 05:22:48;;;;;;;13.50;7.43;;;;;;;22.76;94.72;100508.00;5029631;28;20044;-74
2022/07/02 05:25:14;;;;;;;17.42;8.07;;;;;;;23.11;91.99;100540.88;5029576;28;20033;-73
2022/07/02 05:27:39;;;;;;;20.33;9.07;;;;;;;22.84;90.44;100486.84;5028730;28;20427;-74
2022/07/02 05:30:05;;;;;;;19.75;8.63;;;;;;;23.17;91.92;100545.25;5009596;28;20026;-73
2022/07/02 05:32:31;;;;;;;24.48;9.73;;;;;;;23.20;91.80;100547.81;5009354;28;20087;-74
2022/07/02 05:34:56;;;;;;;18.52;8.25;;;;;;;23.31;90.74;100551.16;4991271;28;20033;-76
2022/07/02 05:37:21;;;;;;;17.88;8.57;;;;;;;23.37;88.69;100543.19;5009416;28;20101;-74
2022/07/02 05:39:47;;;;;;;20.50;8.05;;;;;;;23.41;88.58;100550.16;5009315;28;20108;-74
2022/07/02 05:42:12;;;;;;;18.70;8.60;;;;;;;23.48;90.99;100548.28;4991615;28;20032;-73
2022/07/02 05:44:38;;;;;;;18.58;7.97;;;;;;;23.50;90.38;100548.25;5009576;28;20034;-74
2022/07/02 05:47:04;;;;;;;19.38;8.02;;;;;;;23.51;88.62;100542.97;5029068;28;20029;-72
2022/07/02 05:49:29;;;;;;;18.00;7.93;;;;;;;23.65;87.91;100550.69;5027796;28;20022;-73
2022/07/02 05:51:54;;;;;;;24.10;9.13;;;;;;;23.77;87.78;100552.22;5028879;28;20049;-72
2022/07/02 05:54:20;;;;;;;22.73;8.43;;;;;;;23.90;86.37;100555.50;5028677;28;20022;-74
2022/07/02 05:56:45;;;;;;;15.38;7.50;;;;;;;23.84;83.72;100526.63;5037569;28;20109;-76
2022/07/02 05:59:11;;;;;;;18.23;7.88;;;;;;;24.22;82.89;100555.00;5029305;28;20512;-74
2022/07/02 06:01:36;;;;;;;18.85;7.90;;;;;;;24.10;83.04;100509.50;5031870;28;20029;-74
2022/07/02 06:04:02;;;;;;;18.75;8.15;;;;;;;24.31;83.87;100535.50;5031147;28;20061;-75
2022/07/02 06:09:11;;;;;;;34.17;11.27;;;;;;;24.41;84.85;100557.28;5030337;28;20037;-72
2022/07/02 06:11:37;;;;;;;35.30;11.90;;;;;;;24.43;84.43;100560.75;5032795;28;20021;-73
2022/07/02 06:14:02;;;;;;;27.33;11.23;;;;;;;24.41;82.72;100545.88;5032639;28;20760;-74
2022/07/02 06:16:29;;;;;;;30.48;10.15;;;;;;;24.57;86.95;100567.56;5032301;28;20408;-72
2022/07/02 06:18:55;;;;;;;27.58;10.35;;;;;;;24.56;84.44;100571.94;5031948;28;20124;-73
2022/07/02 06:21:21;;;;;;;23.10;9.18;;;;;;;24.68;83.05;100568.25;5032160;28;20021;-74
2022/07/02 06:23:46;;;;;;;27.15;9.23;;;;;;;24.80;82.05;100564.47;5032375;28;20377;-75
2022/07/02 06:26:11;;;;;;;19.95;7.78;;;;;;;24.69;81.47;100560.28;5032017;28;20037;-75
2022/07/02 06:28:37;;;;;;;15.20;8.80;;;;;;;24.73;83.06;100568.16;5032099;28;20075;-73
2022/07/02 06:31:03;;;;;;;12.57;7.60;;;;;;;24.37;81.98;100506.34;5031734;28;20456;-73
2022/07/02 06:33:29;;;;;;;15.20;8.10;;;;;;;24.81;82.46;100575.03;5032136;28;20033;-74
2022/07/02 06:35:55;;;;;;;20.17;6.95;;;;;;;24.83;81.11;100556.50;5014388;28;20029;-72
2022/07/02 06:38:21;;;;;;;14.00;6.78;;;;;;;25.01;80.48;100577.25;5032487;28;20420;-74
2022/07/02 06:40:47;;;;;;;9.82;6.60;;;;;;;25.15;81.58;100561.09;4996518;28;20029;-75
2022/07/02 06:43:12;;;;;;;9.90;5.88;;;;;;;25.37;78.07;100575.63;5014438;28;20456;-74
2022/07/02 06:45:38;;;;;;;9.98;5.88;;;;;;;25.43;76.00;100568.41;5030500;28;20036;-74
2022/07/02 06:48:04;;;;;;;13.88;5.85;;;;;;;25.64;77.41;100569.66;5030745;28;20112;-76
2022/07/02 06:50:30;;;;;;;11.40;5.13;;;;;;;25.62;75.52;100563.56;5030296;28;20018;-73
2022/07/02 06:52:55;;;;;;;9.85;5.68;;;;;;;25.49;74.68;100517.19;5031806;28;20053;-73
2022/07/02 06:55:21;;;;;;;8.88;5.28;;;;;;;25.72;72.75;100536.88;5032150;28;20049;-75
2022/07/02 06:57:49;;;;;;;12.27;5.68;;;;;;;25.93;73.33;100562.81;5032151;28;20552;-74
2022/07/02 07:00:15;;;;;;;8.43;6.00;;;;;;;26.00;75.68;100555.59;5031892;28;20055;-75
2022/07/02 07:02:41;;;;;;;17.58;5.75;;;;;;;25.78;72.43;100507.66;5031809;28;20485;-74
2022/07/02 07:05:07;;;;;;;11.00;6.57;;;;;;;25.97;73.50;100553.88;5032130;28;20065;-74
2022/07/02 07:07:34;;;;;;;13.63;6.00;;;;;;;26.03;70.20;100546.69;5031832;28;20034;-74
2022/07/02 07:10:00;;;;;;;17.38;6.03;;;;;;;26.17;71.51;100565.78;5031820;28;20036;-74
2022/07/02 07:12:25;;;;;;;17.38;6.43;;;;;;;26.20;69.97;100570.09;5030928;28;20025;-74
2022/07/02 07:14:51;;;;;;;13.48;5.97;;;;;;;26.12;70.18;100546.47;5013646;28;20029;-76
2022/07/02 07:17:16;;;;;;;11.88;5.40;;;;;;;26.25;67.50;100566.41;5014030;28;20051;-76
2022/07/02 07:19:42;;;;;;;10.70;5.20;;;;;;;26.10;69.71;100522.72;5031674;28;20447;-73
2022/07/02 07:22:09;;;;;;;8.98;5.07;;;;;;;26.36;70.23;100560.84;5031491;28;20495;-74
2022/07/02 07:24:34;;;;;;;11.55;5.47;;;;;;;26.32;72.94;100557.41;5031246;28;20051;-76
2022/07/02 07:26:59;;;;;;;11.70;5.30;;;;;;;26.31;68.90;100576.84;5031126;28;20476;-73
2022/07/02 07:29:25;;;;;;;7.75;4.80;;;;;;;26.43;68.52;100574.75;5031284;28;20029;-74
2022/07/02 07:31:50;;;;;;;8.20;4.43;;;;;;;26.56;66.61;100565.56;5031176;28;20111;-75
2022/07/02 07:34:16;;;;;;;10.20;5.00;;;;;;;26.66;67.42;100566.19;5031481;28;20037;-74
2022/07/02 07:36:41;;;;;;;11.93;5.65;;;;;;;26.72;68.70;100565.16;5031483;28;20028;-74
2022/07/02 07:39:07;;;;;;;8.05;5.13;;;;;;;26.77;68.10;100557.97;5031445;28;20031;-74
2022/07/02 07:41:33;;;;;;;10.77;4.50;;;;;;;26.76;64.96;100548.28;5031233;28;20381;-74
2022/07/02 07:44:00;;;;;;;7.43;4.70;;;;;;;26.87;64.92;100551.50;5030981;28;20045;-74
2022/07/02 07:46:25;;;;;;;8.60;5.20;;;;;;;26.97;65.55;100570.63;5031288;28;20040;-73
2022/07/02 07:48:51;;;;;;;9.65;4.70;;;;;;;26.96;67.29;100571.53;5030665;28;20014;-74
2022/07/02 07:51:16;;;;;;;7.35;5.28;;;;;;;27.07;67.04;100560.63;5030940;28;20091;-73
2022/07/02 07:53:45;;;;;;;8.05;5.22;;;;;;;27.25;66.11;100570.66;5030823;28;20038;-74
2022/07/02 07:56:17;;;;;;;8.30;4.65;;;;;;;27.17;63.21;100559.44;5031038;28;20052;-73
2022/07/02 07:58:43;;;;;;;9.27;4.78;;;;;;;27.34;62.12;100552.72;4996494;28;20025;-74
2022/07/02 08:01:08;;;;;;;9.02;4.90;;;;;;;27.52;66.47;100554.81;5030483;28;20024;-74
2022/07/02 08:03:34;;;;;;;7.35;4.72;;;;;;;27.59;62.14;100564.31;5030928;28;20052;-78
2022/07/02 08:05:59;;;;;;;9.57;4.93;;;;;;;27.57;61.15;100534.31;5030459;28;20033;-75
2022/07/02 08:08:25;;;;;;;7.15;4.38;;;;;;;27.97;61.30;100566.59;5030902;28;20396;-73
2022/07/02 08:10:51;;;;;;;7.90;4.90;;;;;;;28.07;62.63;100559.22;5030415;28;20029;-76
2022/07/02 08:13:16;;;;;;;8.88;4.90;;;;;;;28.12;61.73;100561.72;5030545;28;20052;-74
2022/07/02 08:15:42;;;;;;;10.30;4.97;;;;;;;28.15;62.46;100566.91;5030278;28;20511;-73
2022/07/02 08:18:08;;;;;;;9.13;4.57;;;;;;;28.17;59.66;100563.28;5030348;28;20687;-74
2022/07/02 08:20:34;;;;;;;8.85;5.00;;;;;;;28.20;61.74;100568.50;5030264;28;20030;-74
2022/07/02 08:22:59;;;;;;;10.50;4.78;;;;;;;28.16;59.33;100558.91;5030044;28;20037;-73
2022/07/02 08:25:25;;;;;;;10.45;5.13;;;;;;;28.19;57.84;100556.16;5029572;28;20080;-74
2022/07/02 08:27:51;;;;;;;6.93;5.00;;;;;;;28.31;62.81;100551.31;5029996;28;20035;-74
2022/07/02 08:30:17;;;;;;;11.65;4.68;;;;;;;28.38;59.05;100552.84;5029849;28;20041;-74
2022/07/02 08:32:42;;;;;;;8.75;4.90;;;;;;;28.19;62.58;100513.69;5029931;28;20021;-73
2022/07/02 08:35:08;;;;;;;9.27;5.05;;;;;;;28.33;57.75;100517.63;5030495;28;20043;-76
2022/07/02 08:37:33;;;;;;;6.22;4.63;;;;;;;28.70;57.35;100558.81;5029921;28;20108;-73
2022/07/02 08:39:59;;;;;;;7.93;4.68;;;;;;;28.86;60.39;100559.06;5029909;28;20465;-74
2022/07/02 08:42:28;;;;;;;10.70;4.82;;;;;;;29.12;57.91;100571.34;5029359;28;20066;-74
2022/07/02 08:44:54;;;;;;;;;;;;;;;29.23;56.65;100570.09;5030485;28;20559;-74
2022/07/02 08:47:20;;;;;;;9.38;4.97;;;;;;;29.24;59.32;100570.00;5028561;28;19955;-74
2022/07/02 08:49:51;;;;;;;8.27;4.82;;;;;;;29.38;54.44;100582.78;5017872;28;20021;-74
2022/07/02 08:52:18;;;;;;;6.65;4.28;;;;;;;29.46;51.80;100566.53;5030008;28;20054;-75
2022/07/02 08:54:47;;;;;;;10.25;4.30;;;;;;;29.57;56.80;100576.72;5029603;28;20029;-75
2022/07/02 08:57:13;;;;;;;;;;;;;;;29.65;54.25;100575.50;5030318;28;20493;-73
2022/07/02 08:59:39;;;;;;;7.00;4.55;;;;;;;29.69;54.43;100581.56;5030110;28;19995;-73
2022/07/02 09:02:07;;;;;;;8.05;4.65;;;;;;;29.71;56.65;100558.41;5029632;28;20030;-74
2022/07/02 09:04:41;;;;;;;10.32;4.80;;;;;;;29.88;54.26;100562.16;5029500;28;20469;-74
2022/07/02 09:07:07;;;;;;;6.50;4.45;;;;;;;29.99;54.03;100570.59;5029994;28;20028;-75
2022/07/02 09:09:33;;;;;;;8.38;4.47;;;;;;;30.05;55.64;100570.31;5029447;28;20108;-75
2022/07/02 09:11:59;;;;;;;8.80;4.32;;;;;;;30.20;52.83;100570.59;5029887;28;20554;-74
2022/07/02 09:14:25;;;;;;;10.32;4.38;;;;;;;30.11;53.27;100559.41;5029888;28;20037;-74
2022/07/02 09:16:50;;;;;;;7.65;4.47;;;;;;;30.24;51.76;100564.19;5029573;28;20493;-77
2022/07/02 09:19:17;;;;;;;7.80;4.30;;;;;;;30.39;55.49;100568.84;5029791;28;20495;-75
2022/07/02 09:21:51;;;;;;;5.75;4.45;;;;;;;30.43;51.42;100559.78;5029306;28;20480;-75
2022/07/02 09:24:35;;;;;;;7.25;4.40;;;;;;;30.56;51.13;100569.94;5029636;28;20037;-73
2022/07/02 09:27:09;;;;;;;5.57;4.13;;;;;;;29.97;50.45;100447.31;5031370;28;20087;-74
2022/07/02 09:29:45;;;;;;;13.02;4.88;;;;;;;30.65;50.68;100550.84;5029467;28;20112;-73
2022/07/02 09:32:12;;;;;;;9.90;4.80;;;;;;;30.85;49.74;100559.72;5011694;28;20029;-73
2022/07/02 09:34:45;;;;;;;10.98;4.60;;;;;;;30.82;50.63;100540.28;5029327;28;20083;-74
2022/07/02 09:37:22;;;;;;;7.93;4.10;;;;;;;31.10;47.36;100564.78;5020796;28;20095;-74
2022/07/02 09:39:50;;;;;;;6.75;4.40;;;;;;;31.13;49.47;100538.84;5033445;28;20029;-74
2022/07/02 09:42:32;;;;;;;11.30;4.93;;;;;;;31.13;46.96;100506.00;5015617;28;20026;-73
2022/07/02 09:45:00;;;;;;;8.60;4.30;;;;;;;31.53;46.18;100567.19;5032991;28;20044;-74
2022/07/02 09:47:36;;;;;;;8.35;4.65;;;;;;;31.60;43.72;100547.25;5033639;28;20183;-74
2022/07/02 09:50:08;;;;;;;8.50;4.60;;;;;;;31.81;46.84;100555.16;5033186;28;20036;-75
2022/07/02 09:52:35;;;;;;;8.23;3.70;;;;;;;31.86;40.99;100561.13;5033241;28;20065;-75
2022/07/02 09:55:01;;;;;;;5.82;3.90;;;;;;;31.81;44.89;100537.34;5033038;28;20049;-74
2022/07/02 09:57:28;;;;;;;10.30;4.60;;;;;;;32.01;45.95;100559.47;5033093;28;20036;-75
2022/07/02 09:59:54;;;;;;;5.97;4.22;;;;;;;32.13;47.95;100555.28;5033141;28;20030;-74
2022/07/02 10:02:24;;;;;;;9.80;5.28;;;;;;;32.35;42.88;100555.94;5032844;28;20075;-74
2022/07/02 10:04:54;;;;;;;5.72;3.45;;;;;;;32.26;39.78;100524.38;5015118;28;20021;-75
2022/07/02 10:07:21;;;;;;;4.85;3.70;;;;;;;32.53;38.96;100548.75;5032753;28;20607;-74
2022/07/02 10:09:51;;;;;;;10.68;3.97;;;;;;;32.69;41.43;100550.59;5032709;28;20036;-75
2022/07/02 10:12:17;;;;;;;8.85;5.07;;;;;;;32.74;37.03;100522.69;5032953;28;20584;-74
2022/07/02 10:14:45;;;;;;;12.98;4.88;;;;;;;33.01;35.23;100535.47;5032653;28;20496;-75
2022/07/02 10:17:11;;;;;;;7.55;3.72;;;;;;;33.03;35.66;100530.88;5032989;28;20028;-75
2022/07/02 10:19:38;;;;;;;6.55;3.78;;;;;;;33.12;37.97;100542.00;5032544;28;20029;-74
2022/07/02 10:22:06;;;;;;;7.25;4.07;;;;;;;32.85;38.35;100510.53;5032701;28;20500;-74
2022/07/02 10:24:32;;;;;;;8.43;4.43;;;;;;;32.92;36.64;100495.00;5032101;28;20041;-74
2022/07/02 10:27:00;;;;;;;22.35;6.55;;;;;;;33.31;35.45;100544.53;5032640;28;20103;-74
2022/07/02 10:29:26;;;;;;;19.70;6.53;;;;;;;33.42;33.02;100525.19;5032439;28;20033;-73
2022/07/02 10:32:44;;;;;;;49.15;15.70;;;;;;;33.75;30.79;100534.84;5032677;28;20388;-74
2022/07/02 10:35:15;;;;;;;21.50;7.50;;;;;;;33.88;32.83;100535.03;4893625;29;20123;-79
2022/07/02 10:37:42;;;;;;;5.68;3.97;;;;;;;33.91;35.18;100530.34;4894927;29;20421;-75
2022/07/02 10:40:09;;;;;;;14.80;5.50;;;;;;;33.70;30.96;100471.72;4894220;29;20051;-77
2022/07/02 10:42:48;;;;;;;17.55;6.95;;;;;;;34.30;35.13;100520.81;4892381;29;20123;-74
2022/07/02 10:45:21;;;;;;;11.93;5.60;;;;;;;34.42;32.87;100526.38;4893702;29;20523;-76
2022/07/02 10:48:04;;;;;;;21.23;7.45;;;;;;;34.42;33.91;100503.16;4894137;29;20097;-73
2022/07/02 10:50:37;;;;;;;23.52;9.45;;;;;;;34.72;30.61;100528.97;4894415;29;20047;-75
2022/07/02 10:53:24;;;;;;;37.88;13.40;;;;;;;34.76;28.32;100519.75;4893661;29;20052;-76
2022/07/02 10:55:55;;;;;;;10.60;4.28;;;;;;;34.72;28.09;100528.09;4893908;29;20040;-74
2022/07/02 10:58:22;;;;;;;5.28;3.13;;;;;;;34.73;30.54;100538.75;4894493;29;20044;-75
2022/07/02 11:00:48;;;;;;;4.85;2.83;;;;;;;34.71;27.59;100534.41;4893468;29;20045;-76
2022/07/02 11:03:25;;;;;;;5.65;3.13;;;;;;;34.76;28.59;100543.03;4893847;29;20032;-75
2022/07/02 11:05:53;;;;;;;4.03;2.67;;;;;;;34.69;27.05;100536.34;4889997;29;20435;-73
2022/07/02 11:08:40;;;;;;;6.87;3.43;;;;;;;34.91;26.82;100538.56;4933661;29;20043;-74
2022/07/02 11:11:06;;;;;;;3.85;3.08;;;;;;;35.04;26.39;100533.25;4963698;28;20547;-76
2022/07/02 11:13:38;;;;;;;7.75;3.60;;;;;;;35.05;29.06;100527.75;5029835;28;20041;-76
2022/07/02 11:16:20;;;;;;;5.43;3.30;;;;;;;34.97;30.07;100530.94;5031240;28;20017;-76
2022/07/02 11:18:47;;;;;;;7.28;3.50;;;;;;;34.87;28.57;100513.75;5031099;28;20076;-74
2022/07/02 11:21:13;;;;;;;4.65;3.38;;;;;;;34.59;29.86;100507.41;5029344;28;20029;-75
2022/07/02 11:23:42;;;;;;;21.33;7.20;;;;;;;34.77;29.72;100537.56;5029745;28;20408;-76
2022/07/02 11:26:08;;;;;;;6.95;3.83;;;;;;;35.05;28.30;100530.44;5030934;28;20036;-76